sensor_id;sensor_type;location;lat;lon;timestamp;P1;durP1;ratioP1;P2;durP2;ratioP2
35114;SDS011;21292;52.416;13.046;2024-01-15T00:01:03;24.67;;;12.02;;
35114;SDS011;21292;52.416;13.046;2024-01-15T00:03:31;22.17;;;11.98;;
35114;SDS011;21292;52.416;13.046;2024-01-15T00:06:00;27.08;;;11.32;;
35114;SDS011;21292;52.416;13.046;2024-01-15T00:08:28;21.25;;;11.70;;
35114;SDS011;21292;52.416;13.046;2024-01-15T00:10:56;21.25;;;11.40;;
35114;SDS011;21292;52.416;13.046;2024-01-15T00:13:24;25.27;;;12.60;;
35114;SDS011;21292;52.416;13.046;2024-01-15T00:15:52;26.77;;;12.77;;
35114;SDS011;21292;52.416;13.046;2024-01-15T00:18:22;27.50;;;12.10;;
35114;SDS011;21292;52.416;13.046;2024-01-15T00:20:50;23.52;;;12.18;;
35114;SDS011;21292;52.416;13.046;2024-01-15T00:23:18;27.90;;;12.43;;
35114;SDS011;21292;52.416;13.046;2024-01-15T00:25:46;21.70;;;11.40;;
35114;SDS011;21292;52.416;13.046;2024-01-15T00:28:14;25.08;;;11.65;;
35114;SDS011;21292;52.416;13.046;2024-01-15T00:30:43;25.60;;;12.65;;
35114;SDS011;21292;52.416;13.046;2024-01-15T00:33:11;28.88;;;11.15;;
35114;SDS011;21292;52.416;13.046;2024-01-15T00:35:43;24.73;;;12.43;;
35114;SDS011;21292;52.416;13.046;2024-01-15T00:38:11;28.55;;;13.45;;
35114;SDS011;21292;52.416;13.046;2024-01-15T00:40:39;30.52;;;12.48;;
35114;SDS011;21292;52.416;13.046;2024-01-15T00:43:07;21.85;;;11.35;;
35114;SDS011;21292;52.416;13.046;2024-01-15T00:45:35;24.23;;;11.65;;
35114;SDS011;21292;52.416;13.046;2024-01-15T00:48:04;24.70;;;10.93;;
35114;SDS011;21292;52.416;13.046;2024-01-15T00:50:33;24.60;;;12.02;;
35114;SDS011;21292;52.416;13.046;2024-01-15T00:53:02;24.27;;;10.82;;
35114;SDS011;21292;52.416;13.046;2024-01-15T00:55:31;28.55;;;12.73;;
35114;SDS011;21292;52.416;13.046;2024-01-15T00:57:59;21.50;;;10.80;;
35114;SDS011;21292;52.416;13.046;2024-01-15T01:00:27;22.33;;;11.63;;
35114;SDS011;21292;52.416;13.046;2024-01-15T01:02:55;25.95;;;10.98;;
35114;SDS011;21292;52.416;13.046;2024-01-15T01:05:23;22.38;;;11.07;;
35114;SDS011;21292;52.416;13.046;2024-01-15T01:07:52;25.08;;;12.52;;
35114;SDS011;21292;52.416;13.046;2024-01-15T01:10:21;22.75;;;12.25;;
35114;SDS011;21292;52.416;13.046;2024-01-15T01:12:49;25.95;;;12.68;;
35114;SDS011;21292;52.416;13.046;2024-01-15T01:15:17;26.85;;;11.27;;
35114;SDS011;21292;52.416;13.046;2024-01-15T01:17:46;27.83;;;12.27;;
35114;SDS011;21292;52.416;13.046;2024-01-15T01:20:15;22.88;;;12.68;;
35114;SDS011;21292;52.416;13.046;2024-01-15T01:22:45;23.63;;;11.75;;
35114;SDS011;21292;52.416;13.046;2024-01-15T01:25:13;23.20;;;11.05;;
35114;SDS011;21292;52.416;13.046;2024-01-15T01:27:43;23.90;;;11.35;;
35114;SDS011;21292;52.416;13.046;2024-01-15T01:30:11;23.27;;;11.85;;
35114;SDS011;21292;52.416;13.046;2024-01-15T01:32:39;26.67;;;12.30;;
35114;SDS011;21292;52.416;13.046;2024-01-15T01:35:07;24.55;;;12.30;;
35114;SDS011;21292;52.416;13.046;2024-01-15T01:37:35;30.35;;;13.10;;
35114;SDS011;21292;52.416;13.046;2024-01-15T01:40:04;28.55;;;12.57;;
35114;SDS011;21292;52.416;13.046;2024-01-15T01:42:33;22.85;;;11.02;;
35114;SDS011;21292;52.416;13.046;2024-01-15T01:45:03;25.00;;;13.63;;
35114;SDS011;21292;52.416;13.046;2024-01-15T01:47:31;27.20;;;13.15;;
35114;SDS011;21292;52.416;13.046;2024-01-15T01:50:00;27.48;;;13.25;;
35114;SDS011;21292;52.416;13.046;2024-01-15T01:52:29;24.92;;;11.55;;
35114;SDS011;21292;52.416;13.046;2024-01-15T01:54:58;26.77;;;12.57;;
35114;SDS011;21292;52.416;13.046;2024-01-15T01:57:28;31.38;;;13.30;;
35114;SDS011;21292;52.416;13.046;2024-01-15T01:59:56;28.67;;;12.70;;
35114;SDS011;21292;52.416;13.046;2024-01-15T02:02:25;25.27;;;11.85;;
35114;SDS011;21292;52.416;13.046;2024-01-15T02:04:53;30.25;;;12.50;;
35114;SDS011;21292;52.416;13.046;2024-01-15T02:07:22;19.75;;;9.48;;
35114;SDS011;21292;52.416;13.046;2024-01-15T02:09:50;27.40;;;12.65;;
35114;SDS011;21292;52.416;13.046;2024-01-15T02:12:18;22.70;;;11.95;;
35114;SDS011;21292;52.416;13.046;2024-01-15T02:14:47;26.98;;;11.73;;
35114;SDS011;21292;52.416;13.046;2024-01-15T02:17:15;23.80;;;11.27;;
35114;SDS011;21292;52.416;13.046;2024-01-15T02:19:45;24.95;;;11.07;;
35114;SDS011;21292;52.416;13.046;2024-01-15T02:22:13;26.35;;;10.65;;
35114;SDS011;21292;52.416;13.046;2024-01-15T02:24:42;25.75;;;10.23;;
35114;SDS011;21292;52.416;13.046;2024-01-15T02:27:11;20.00;;;9.93;;
35114;SDS011;21292;52.416;13.046;2024-01-15T02:29:40;28.45;;;11.25;;
35114;SDS011;21292;52.416;13.046;2024-01-15T02:32:09;28.40;;;11.88;;
35114;SDS011;21292;52.416;13.046;2024-01-15T02:34:37;24.08;;;11.50;;
35114;SDS011;21292;52.416;13.046;2024-01-15T02:37:05;24.83;;;12.10;;
35114;SDS011;21292;52.416;13.046;2024-01-15T02:39:33;22.60;;;11.00;;
35114;SDS011;21292;52.416;13.046;2024-01-15T02:42:03;23.33;;;11.45;;
35114;SDS011;21292;52.416;13.046;2024-01-15T02:44:31;26.15;;;10.85;;
35114;SDS011;21292;52.416;13.046;2024-01-15T02:46:59;22.92;;;10.15;;
35114;SDS011;21292;52.416;13.046;2024-01-15T02:49:27;18.70;;;9.80;;
35114;SDS011;21292;52.416;13.046;2024-01-15T02:51:56;21.30;;;9.73;;
35114;SDS011;21292;52.416;13.046;2024-01-15T02:54:24;22.92;;;10.82;;
35114;SDS011;21292;52.416;13.046;2024-01-15T02:56:52;20.48;;;9.63;;
35114;SDS011;21292;52.416;13.046;2024-01-15T02:59:21;23.05;;;9.95;;
35114;SDS011;21292;52.416;13.046;2024-01-15T03:01:49;18.88;;;10.18;;
35114;SDS011;21292;52.416;13.046;2024-01-15T03:04:18;25.63;;;11.45;;
35114;SDS011;21292;52.416;13.046;2024-01-15T03:06:46;17.98;;;8.70;;
35114;SDS011;21292;52.416;13.046;2024-01-15T03:09:14;17.67;;;7.95;;
35114;SDS011;21292;52.416;13.046;2024-01-15T03:11:42;17.83;;;8.88;;
35114;SDS011;21292;52.416;13.046;2024-01-15T03:14:10;16.50;;;8.18;;
35114;SDS011;21292;52.416;13.046;2024-01-15T03:16:40;20.63;;;7.50;;
35114;SDS011;21292;52.416;13.046;2024-01-15T03:19:08;21.73;;;9.55;;
35114;SDS011;21292;52.416;13.046;2024-01-15T03:21:36;20.30;;;8.15;;
35114;SDS011;21292;52.416;13.046;2024-01-15T03:24:04;24.70;;;8.52;;
35114;SDS011;21292;52.416;13.046;2024-01-15T03:26:33;22.75;;;8.43;;
35114;SDS011;21292;52.416;13.046;2024-01-15T03:29:01;20.80;;;8.30;;
35114;SDS011;21292;52.416;13.046;2024-01-15T03:31:29;17.80;;;7.80;;
35114;SDS011;21292;52.416;13.046;2024-01-15T03:33:58;19.70;;;8.25;;
35114;SDS011;21292;52.416;13.046;2024-01-15T03:36:27;14.68;;;7.32;;
35114;SDS011;21292;52.416;13.046;2024-01-15T03:38:55;14.82;;;7.80;;
35114;SDS011;21292;52.416;13.046;2024-01-15T03:41:23;16.77;;;7.93;;
35114;SDS011;21292;52.416;13.046;2024-01-15T03:43:53;23.20;;;8.07;;
35114;SDS011;21292;52.416;13.046;2024-01-15T03:46:21;17.52;;;8.15;;
35114;SDS011;21292;52.416;13.046;2024-01-15T03:48:49;16.33;;;7.50;;
35114;SDS011;21292;52.416;13.046;2024-01-15T03:51:18;18.30;;;7.05;;
35114;SDS011;21292;52.416;13.046;2024-01-15T03:53:46;15.00;;;7.07;;
35114;SDS011;21292;52.416;13.046;2024-01-15T03:56:14;15.95;;;6.72;;
35114;SDS011;21292;52.416;13.046;2024-01-15T03:58:43;12.15;;;6.78;;
35114;SDS011;21292;52.416;13.046;2024-01-15T04:01:11;16.98;;;7.20;;
35114;SDS011;21292;52.416;13.046;2024-01-15T04:03:39;17.65;;;6.78;;
35114;SDS011;21292;52.416;13.046;2024-01-15T04:06:07;15.48;;;6.90;;
35114;SDS011;21292;52.416;13.046;2024-01-15T04:08:37;18.30;;;6.63;;
35114;SDS011;21292;52.416;13.046;2024-01-15T04:11:05;14.65;;;5.97;;
35114;SDS011;21292;52.416;13.046;2024-01-15T04:13:33;15.02;;;5.65;;
35114;SDS011;21292;52.416;13.046;2024-01-15T04:16:01;13.70;;;5.57;;
35114;SDS011;21292;52.416;13.046;2024-01-15T04:18:30;14.18;;;5.82;;
35114;SDS011;21292;52.416;13.046;2024-01-15T04:20:58;12.15;;;4.60;;
35114;SDS011;21292;52.416;13.046;2024-01-15T04:23:26;7.65;;;4.35;;
35114;SDS011;21292;52.416;13.046;2024-01-15T04:25:55;16.63;;;4.75;;
35114;SDS011;21292;52.416;13.046;2024-01-15T04:28:24;8.73;;;4.93;;
35114;SDS011;21292;52.416;13.046;2024-01-15T04:30:52;13.18;;;4.68;;
35114;SDS011;21292;52.416;13.046;2024-01-15T04:33:20;12.70;;;4.30;;
35114;SDS011;21292;52.416;13.046;2024-01-15T04:35:51;13.35;;;3.80;;
35114;SDS011;21292;52.416;13.046;2024-01-15T04:38:19;11.30;;;4.10;;
35114;SDS011;21292;52.416;13.046;2024-01-15T04:40:47;13.90;;;4.25;;
35114;SDS011;21292;52.416;13.046;2024-01-15T04:43:17;11.60;;;4.50;;
35114;SDS011;21292;52.416;13.046;2024-01-15T04:45:45;10.07;;;3.47;;
35114;SDS011;21292;52.416;13.046;2024-01-15T04:48:13;7.72;;;3.72;;
35114;SDS011;21292;52.416;13.046;2024-01-15T04:50:42;10.25;;;3.90;;
35114;SDS011;21292;52.416;13.046;2024-01-15T04:53:10;8.40;;;3.10;;
35114;SDS011;21292;52.416;13.046;2024-01-15T04:55:39;6.38;;;3.03;;
35114;SDS011;21292;52.416;13.046;2024-01-15T04:58:07;12.13;;;3.10;;
35114;SDS011;21292;52.416;13.046;2024-01-15T05:00:36;6.22;;;3.10;;
35114;SDS011;21292;52.416;13.046;2024-01-15T05:03:05;11.80;;;3.90;;
35114;SDS011;21292;52.416;13.046;2024-01-15T05:05:33;11.75;;;4.03;;
35114;SDS011;21292;52.416;13.046;2024-01-15T05:08:01;4.50;;;2.58;;
35114;SDS011;21292;52.416;13.046;2024-01-15T05:10:29;11.65;;;3.78;;
35114;SDS011;21292;52.416;13.046;2024-01-15T05:12:57;7.63;;;3.42;;
35114;SDS011;21292;52.416;13.046;2024-01-15T05:15:25;13.93;;;3.65;;
35114;SDS011;21292;52.416;13.046;2024-01-15T05:17:55;13.45;;;3.50;;
35114;SDS011;21292;52.416;13.046;2024-01-15T05:20:23;14.98;;;3.60;;
35114;SDS011;21292;52.416;13.046;2024-01-15T05:22:51;7.70;;;3.55;;
35114;SDS011;21292;52.416;13.046;2024-01-15T05:25:19;10.30;;;3.30;;
35114;SDS011;21292;52.416;13.046;2024-01-15T05:27:47;12.77;;;3.20;;
35114;SDS011;21292;52.416;13.046;2024-01-15T05:30:16;6.80;;;3.05;;
35114;SDS011;21292;52.416;13.046;2024-01-15T05:32:44;10.65;;;4.35;;
35114;SDS011;21292;52.416;13.046;2024-01-15T05:35:14;9.95;;;3.35;;
35114;SDS011;21292;52.416;13.046;2024-01-15T05:37:44;13.57;;;4.25;;
35114;SDS011;21292;52.416;13.046;2024-01-15T05:40:12;14.48;;;3.70;;
35114;SDS011;21292;52.416;13.046;2024-01-15T05:42:41;11.60;;;3.58;;
35114;SDS011;21292;52.416;13.046;2024-01-15T05:45:09;9.25;;;2.90;;
35114;SDS011;21292;52.416;13.046;2024-01-15T05:47:37;13.15;;;2.80;;
35114;SDS011;21292;52.416;13.046;2024-01-15T05:50:06;10.65;;;3.00;;
35114;SDS011;21292;52.416;13.046;2024-01-15T05:52:36;14.35;;;3.58;;
35114;SDS011;21292;52.416;13.046;2024-01-15T05:55:04;7.40;;;3.08;;
35114;SDS011;21292;52.416;13.046;2024-01-15T05:57:32;8.57;;;3.20;;
35114;SDS011;21292;52.416;13.046;2024-01-15T06:00:01;10.10;;;2.83;;
35114;SDS011;21292;52.416;13.046;2024-01-15T06:02:29;9.35;;;2.60;;
35114;SDS011;21292;52.416;13.046;2024-01-15T06:04:58;14.35;;;4.95;;
35114;SDS011;21292;52.416;13.046;2024-01-15T06:07:26;9.30;;;3.95;;
35114;SDS011;21292;52.416;13.046;2024-01-15T06:09:56;11.48;;;3.60;;
35114;SDS011;21292;52.416;13.046;2024-01-15T06:12:24;8.93;;;4.13;;
35114;SDS011;21292;52.416;13.046;2024-01-15T06:14:54;17.75;;;3.00;;
35114;SDS011;21292;52.416;13.046;2024-01-15T06:17:22;5.80;;;2.30;;
35114;SDS011;21292;52.416;13.046;2024-01-15T06:19:51;10.93;;;3.22;;
35114;SDS011;21292;52.416;13.046;2024-01-15T06:22:19;12.07;;;2.90;;
35114;SDS011;21292;52.416;13.046;2024-01-15T06:24:47;9.35;;;3.08;;
35114;SDS011;21292;52.416;13.046;2024-01-15T06:27:16;14.38;;;3.15;;
35114;SDS011;21292;52.416;13.046;2024-01-15T06:29:45;13.05;;;2.83;;
35114;SDS011;21292;52.416;13.046;2024-01-15T06:32:16;7.63;;;2.50;;
35114;SDS011;21292;52.416;13.046;2024-01-15T06:34:45;8.85;;;2.53;;
35114;SDS011;21292;52.416;13.046;2024-01-15T06:37:13;4.80;;;2.08;;
35114;SDS011;21292;52.416;13.046;2024-01-15T06:39:41;4.13;;;2.13;;
35114;SDS011;21292;52.416;13.046;2024-01-15T06:42:09;16.95;;;2.55;;
35114;SDS011;21292;52.416;13.046;2024-01-15T06:44:39;7.22;;;2.40;;
35114;SDS011;21292;52.416;13.046;2024-01-15T06:47:07;9.63;;;2.45;;
35114;SDS011;21292;52.416;13.046;2024-01-15T06:49:35;13.25;;;2.00;;
35114;SDS011;21292;52.416;13.046;2024-01-15T06:52:03;5.47;;;2.53;;
35114;SDS011;21292;52.416;13.046;2024-01-15T06:54:33;6.47;;;2.33;;
35114;SDS011;21292;52.416;13.046;2024-01-15T06:57:01;9.05;;;2.97;;
35114;SDS011;21292;52.416;13.046;2024-01-15T06:59:29;5.47;;;1.92;;
35114;SDS011;21292;52.416;13.046;2024-01-15T07:01:58;9.20;;;2.42;;
35114;SDS011;21292;52.416;13.046;2024-01-15T07:04:27;4.82;;;1.65;;
35114;SDS011;21292;52.416;13.046;2024-01-15T07:06:55;2.38;;;1.50;;
35114;SDS011;21292;52.416;13.046;2024-01-15T07:09:23;10.75;;;1.98;;
35114;SDS011;21292;52.416;13.046;2024-01-15T07:11:51;6.32;;;1.83;;
35114;SDS011;21292;52.416;13.046;2024-01-15T07:14:19;10.90;;;2.05;;
35114;SDS011;21292;52.416;13.046;2024-01-15T07:16:47;16.42;;;1.80;;
35114;SDS011;21292;52.416;13.046;2024-01-15T07:19:16;18.95;;;2.70;;
35114;SDS011;21292;52.416;13.046;2024-01-15T07:21:45;11.65;;;1.63;;
35114;SDS011;21292;52.416;13.046;2024-01-15T07:24:13;9.30;;;1.55;;
35114;SDS011;21292;52.416;13.046;2024-01-15T07:26:41;9.70;;;1.85;;
35114;SDS011;21292;52.416;13.046;2024-01-15T07:29:10;11.93;;;2.33;;
35114;SDS011;21292;52.416;13.046;2024-01-15T07:31:38;4.57;;;2.17;;
35114;SDS011;21292;52.416;13.046;2024-01-15T07:34:06;7.35;;;2.15;;
35114;SDS011;21292;52.416;13.046;2024-01-15T07:36:39;5.53;;;1.58;;
35114;SDS011;21292;52.416;13.046;2024-01-15T07:41:36;8.55;;;1.50;;
35114;SDS011;21292;52.416;13.046;2024-01-15T07:44:04;9.15;;;1.75;;
35114;SDS011;21292;52.416;13.046;2024-01-15T07:46:33;9.82;;;2.58;;
35114;SDS011;21292;52.416;13.046;2024-01-15T07:49:01;12.30;;;1.92;;
35114;SDS011;21292;52.416;13.046;2024-01-15T07:51:30;10.77;;;2.40;;
35114;SDS011;21292;52.416;13.046;2024-01-15T07:53:59;10.95;;;2.40;;
35114;SDS011;21292;52.416;13.046;2024-01-15T07:56:28;10.60;;;1.80;;
35114;SDS011;21292;52.416;13.046;2024-01-15T07:58:56;10.45;;;2.40;;
35114;SDS011;21292;52.416;13.046;2024-01-15T08:01:24;6.70;;;1.83;;
35114;SDS011;21292;52.416;13.046;2024-01-15T08:03:52;9.07;;;2.17;;
35114;SDS011;21292;52.416;13.046;2024-01-15T08:06:25;7.25;;;2.42;;
35114;SDS011;21292;52.416;13.046;2024-01-15T08:08:53;11.90;;;1.95;;
35114;SDS011;21292;52.416;13.046;2024-01-15T08:11:22;11.80;;;2.70;;
35114;SDS011;21292;52.416;13.046;2024-01-15T08:13:50;6.68;;;2.05;;
35114;SDS011;21292;52.416;13.046;2024-01-15T08:16:18;10.02;;;2.13;;
35114;SDS011;21292;52.416;13.046;2024-01-15T08:18:47;10.35;;;1.70;;
35114;SDS011;21292;52.416;13.046;2024-01-15T08:21:15;11.00;;;2.05;;
35114;SDS011;21292;52.416;13.046;2024-01-15T08:23:43;6.03;;;2.65;;
35114;SDS011;21292;52.416;13.046;2024-01-15T08:26:11;9.10;;;2.08;;
35114;SDS011;21292;52.416;13.046;2024-01-15T08:28:41;4.47;;;1.63;;
35114;SDS011;21292;52.416;13.046;2024-01-15T08:31:09;6.38;;;1.85;;
35114;SDS011;21292;52.416;13.046;2024-01-15T08:33:37;12.68;;;2.22;;
35114;SDS011;21292;52.416;13.046;2024-01-15T08:36:05;8.25;;;2.03;;
35114;SDS011;21292;52.416;13.046;2024-01-15T08:38:34;12.10;;;2.22;;
35114;SDS011;21292;52.416;13.046;2024-01-15T08:41:02;8.90;;;2.05;;
35114;SDS011;21292;52.416;13.046;2024-01-15T08:43:30;10.75;;;2.25;;
35114;SDS011;21292;52.416;13.046;2024-01-15T08:46:00;7.53;;;2.33;;
35114;SDS011;21292;52.416;13.046;2024-01-15T08:48:28;10.68;;;2.00;;
35114;SDS011;21292;52.416;13.046;2024-01-15T08:50:57;6.20;;;2.28;;
35114;SDS011;21292;52.416;13.046;2024-01-15T08:53:25;6.25;;;2.03;;
35114;SDS011;21292;52.416;13.046;2024-01-15T08:55:53;7.03;;;2.00;;
35114;SDS011;21292;52.416;13.046;2024-01-15T08:58:22;7.57;;;2.10;;
35114;SDS011;21292;52.416;13.046;2024-01-15T09:00:51;5.63;;;2.25;;
35114;SDS011;21292;52.416;13.046;2024-01-15T09:03:20;6.85;;;2.25;;
35114;SDS011;21292;52.416;13.046;2024-01-15T09:05:49;8.50;;;2.47;;
35114;SDS011;21292;52.416;13.046;2024-01-15T09:08:18;11.60;;;2.28;;
35114;SDS011;21292;52.416;13.046;2024-01-15T09:10:46;9.48;;;2.05;;
35114;SDS011;21292;52.416;13.046;2024-01-15T09:13:14;6.53;;;2.40;;
35114;SDS011;21292;52.416;13.046;2024-01-15T09:15:43;10.38;;;2.13;;
35114;SDS011;21292;52.416;13.046;2024-01-15T09:18:11;9.43;;;2.72;;
35114;SDS011;21292;52.416;13.046;2024-01-15T09:20:41;10.15;;;2.15;;
35114;SDS011;21292;52.416;13.046;2024-01-15T09:23:09;7.93;;;2.35;;
35114;SDS011;21292;52.416;13.046;2024-01-15T09:25:37;8.98;;;2.08;;
35114;SDS011;21292;52.416;13.046;2024-01-15T09:28:05;7.47;;;2.22;;
35114;SDS011;21292;52.416;13.046;2024-01-15T09:30:35;11.60;;;2.38;;
35114;SDS011;21292;52.416;13.046;2024-01-15T09:33:03;4.63;;;1.83;;
35114;SDS011;21292;52.416;13.046;2024-01-15T09:35:32;5.35;;;2.15;;
35114;SDS011;21292;52.416;13.046;2024-01-15T09:38:02;6.03;;;2.03;;
35114;SDS011;21292;52.416;13.046;2024-01-15T09:40:30;6.25;;;2.30;;
35114;SDS011;21292;52.416;13.046;2024-01-15T09:42:59;6.28;;;2.20;;
35114;SDS011;21292;52.416;13.046;2024-01-15T09:45:28;6.63;;;2.92;;
35114;SDS011;21292;52.416;13.046;2024-01-15T09:47:57;5.90;;;2.45;;
35114;SDS011;21292;52.416;13.046;2024-01-15T09:50:25;4.45;;;1.77;;
35114;SDS011;21292;52.416;13.046;2024-01-15T09:52:53;6.07;;;2.40;;
35114;SDS011;21292;52.416;13.046;2024-01-15T09:55:25;4.72;;;2.08;;
35114;SDS011;21292;52.416;13.046;2024-01-15T09:57:53;6.25;;;2.20;;
35114;SDS011;21292;52.416;13.046;2024-01-15T10:00:23;5.10;;;1.88;;
35114;SDS011;21292;52.416;13.046;2024-01-15T10:02:51;4.50;;;1.90;;
35114;SDS011;21292;52.416;13.046;2024-01-15T10:05:19;6.25;;;1.98;;
35114;SDS011;21292;52.416;13.046;2024-01-15T10:07:47;6.28;;;2.33;;
35114;SDS011;21292;52.416;13.046;2024-01-15T10:10:17;11.05;;;2.50;;
35114;SDS011;21292;52.416;13.046;2024-01-15T10:12:46;3.20;;;1.77;;
35114;SDS011;21292;52.416;13.046;2024-01-15T10:15:14;4.15;;;1.73;;
35114;SDS011;21292;52.416;13.046;2024-01-15T10:17:44;3.47;;;1.63;;
35114;SDS011;21292;52.416;13.046;2024-01-15T10:20:13;3.30;;;2.08;;
35114;SDS011;21292;52.416;13.046;2024-01-15T10:22:41;7.28;;;2.10;;
35114;SDS011;21292;52.416;13.046;2024-01-15T10:25:10;6.80;;;2.58;;
35114;SDS011;21292;52.416;13.046;2024-01-15T10:27:39;5.32;;;1.85;;
35114;SDS011;21292;52.416;13.046;2024-01-15T10:30:10;7.50;;;2.83;;
35114;SDS011;21292;52.416;13.046;2024-01-15T10:32:41;8.82;;;2.45;;
35114;SDS011;21292;52.416;13.046;2024-01-15T10:35:09;5.70;;;2.15;;
35114;SDS011;21292;52.416;13.046;2024-01-15T10:37:37;5.88;;;2.40;;
35114;SDS011;21292;52.416;13.046;2024-01-15T10:40:05;4.15;;;1.83;;
35114;SDS011;21292;52.416;13.046;2024-01-15T10:42:34;6.78;;;2.08;;
35114;SDS011;21292;52.416;13.046;2024-01-15T10:45:03;7.30;;;2.03;;
35114;SDS011;21292;52.416;13.046;2024-01-15T10:47:33;14.02;;;2.40;;
35114;SDS011;21292;52.416;13.046;2024-01-15T10:50:01;3.33;;;1.80;;
35114;SDS011;21292;52.416;13.046;2024-01-15T10:52:29;10.77;;;1.73;;
35114;SDS011;21292;52.416;13.046;2024-01-15T10:54:58;5.68;;;1.75;;
35114;SDS011;21292;52.416;13.046;2024-01-15T10:57:34;5.30;;;1.65;;
35114;SDS011;21292;52.416;13.046;2024-01-15T11:00:03;7.18;;;2.17;;
35114;SDS011;21292;52.416;13.046;2024-01-15T11:02:34;3.80;;;1.55;;
35114;SDS011;21292;52.416;13.046;2024-01-15T11:05:03;2.95;;;1.80;;
35114;SDS011;21292;52.416;13.046;2024-01-15T11:07:32;5.80;;;2.10;;
35114;SDS011;21292;52.416;13.046;2024-01-15T11:10:02;4.43;;;1.83;;
35114;SDS011;21292;52.416;13.046;2024-01-15T11:12:31;2.97;;;1.95;;
35114;SDS011;21292;52.416;13.046;2024-01-15T11:15:03;8.55;;;2.00;;
35114;SDS011;21292;52.416;13.046;2024-01-15T11:20:27;6.82;;;2.08;;
35114;SDS011;21292;52.416;13.046;2024-01-15T11:22:56;8.52;;;2.40;;
35114;SDS011;21292;52.416;13.046;2024-01-15T11:25:34;4.75;;;2.25;;
35114;SDS011;21292;52.416;13.046;2024-01-15T11:28:03;10.40;;;2.58;;
35114;SDS011;21292;52.416;13.046;2024-01-15T11:30:32;6.57;;;1.90;;
35114;SDS011;21292;52.416;13.046;2024-01-15T11:33:04;5.60;;;2.35;;
35114;SDS011;21292;52.416;13.046;2024-01-15T11:35:49;9.17;;;2.37;;
35114;SDS011;21292;52.416;13.046;2024-01-15T11:38:27;7.03;;;2.47;;
35114;SDS011;21292;52.416;13.046;2024-01-15T11:40:56;7.07;;;2.60;;
35114;SDS011;21292;52.416;13.046;2024-01-15T11:43:26;3.42;;;2.15;;
35114;SDS011;21292;52.416;13.046;2024-01-15T11:45:54;5.72;;;2.55;;
35114;SDS011;21292;52.416;13.046;2024-01-15T11:48:24;4.78;;;2.72;;
35114;SDS011;21292;52.416;13.046;2024-01-15T11:51:04;7.32;;;2.17;;
35114;SDS011;21292;52.416;13.046;2024-01-15T11:53:34;4.63;;;2.53;;
35114;SDS011;21292;52.416;13.046;2024-01-15T11:56:06;2.97;;;1.98;;
35114;SDS011;21292;52.416;13.046;2024-01-15T11:58:40;5.43;;;2.30;;
35114;SDS011;21292;52.416;13.046;2024-01-15T12:01:08;5.15;;;2.60;;
35114;SDS011;21292;52.416;13.046;2024-01-15T12:03:39;4.47;;;2.47;;
35114;SDS011;21292;52.416;13.046;2024-01-15T12:06:07;4.13;;;2.22;;
35114;SDS011;21292;52.416;13.046;2024-01-15T12:08:37;2.88;;;1.98;;
35114;SDS011;21292;52.416;13.046;2024-01-15T12:11:05;4.07;;;2.33;;
35114;SDS011;21292;52.416;13.046;2024-01-15T12:13:37;3.63;;;2.33;;
35114;SDS011;21292;52.416;13.046;2024-01-15T12:16:05;4.43;;;2.47;;
35114;SDS011;21292;52.416;13.046;2024-01-15T12:18:34;3.00;;;2.30;;
35114;SDS011;21292;52.416;13.046;2024-01-15T12:21:04;2.55;;;1.77;;
35114;SDS011;21292;52.416;13.046;2024-01-15T12:23:33;3.28;;;2.03;;
35114;SDS011;21292;52.416;13.046;2024-01-15T12:26:01;5.25;;;2.00;;
35114;SDS011;21292;52.416;13.046;2024-01-15T12:28:29;3.85;;;2.22;;
35114;SDS011;21292;52.416;13.046;2024-01-15T12:30:58;5.43;;;1.80;;
35114;SDS011;21292;52.416;13.046;2024-01-15T12:33:32;1.85;;;1.65;;
35114;SDS011;21292;52.416;13.046;2024-01-15T12:36:01;4.07;;;2.08;;
35114;SDS011;21292;52.416;13.046;2024-01-15T12:38:30;4.40;;;1.65;;
35114;SDS011;21292;52.416;13.046;2024-01-15T12:40:59;3.65;;;2.22;;
35114;SDS011;21292;52.416;13.046;2024-01-15T12:43:28;3.53;;;2.45;;
35114;SDS011;21292;52.416;13.046;2024-01-15T12:45:56;3.97;;;2.63;;
35114;SDS011;21292;52.416;13.046;2024-01-15T12:48:24;3.08;;;2.78;;
35114;SDS011;21292;52.416;13.046;2024-01-15T12:50:52;5.20;;;3.30;;
35114;SDS011;21292;52.416;13.046;2024-01-15T12:53:20;5.43;;;3.28;;
35114;SDS011;21292;52.416;13.046;2024-01-15T12:55:50;5.90;;;2.80;;
35114;SDS011;21292;52.416;13.046;2024-01-15T12:58:18;7.00;;;3.22;;
35114;SDS011;21292;52.416;13.046;2024-01-15T13:00:47;8.88;;;3.10;;
35114;SDS011;21292;52.416;13.046;2024-01-15T13:03:15;8.50;;;3.20;;
35114;SDS011;21292;52.416;13.046;2024-01-15T13:05:44;9.18;;;3.03;;
35114;SDS011;21292;52.416;13.046;2024-01-15T13:08:12;7.35;;;4.00;;
35114;SDS011;21292;52.416;13.046;2024-01-15T13:10:40;9.63;;;4.35;;
35114;SDS011;21292;52.416;13.046;2024-01-15T13:13:10;6.70;;;3.42;;
35114;SDS011;21292;52.416;13.046;2024-01-15T13:15:38;8.02;;;4.38;;
35114;SDS011;21292;52.416;13.046;2024-01-15T13:18:07;11.05;;;4.35;;
35114;SDS011;21292;52.416;13.046;2024-01-15T13:20:36;11.35;;;4.28;;
35114;SDS011;21292;52.416;13.046;2024-01-15T13:23:04;7.85;;;4.35;;
35114;SDS011;21292;52.416;13.046;2024-01-15T13:25:32;18.88;;;5.38;;
35114;SDS011;21292;52.416;13.046;2024-01-15T13:28:02;16.08;;;4.38;;
35114;SDS011;21292;52.416;13.046;2024-01-15T13:30:33;7.28;;;4.28;;
35114;SDS011;21292;52.416;13.046;2024-01-15T13:33:01;8.85;;;3.83;;
35114;SDS011;21292;52.416;13.046;2024-01-15T13:35:33;8.98;;;4.05;;
35114;SDS011;21292;52.416;13.046;2024-01-15T13:38:03;8.88;;;4.30;;
35114;SDS011;21292;52.416;13.046;2024-01-15T13:40:31;7.30;;;3.83;;
35114;SDS011;21292;52.416;13.046;2024-01-15T13:43:01;10.75;;;4.40;;
35114;SDS011;21292;52.416;13.046;2024-01-15T13:45:35;9.93;;;4.55;;
35114;SDS011;21292;52.416;13.046;2024-01-15T13:48:04;5.50;;;3.40;;
35114;SDS011;21292;52.416;13.046;2024-01-15T13:50:33;10.45;;;4.25;;
35114;SDS011;21292;52.416;13.046;2024-01-15T13:53:01;11.95;;;5.07;;
35114;SDS011;21292;52.416;13.046;2024-01-15T13:55:31;7.82;;;4.78;;
35114;SDS011;21292;52.416;13.046;2024-01-15T13:58:00;9.85;;;4.57;;
35114;SDS011;21292;52.416;13.046;2024-01-15T14:00:30;6.80;;;3.63;;
35114;SDS011;21292;52.416;13.046;2024-01-15T14:03:00;6.07;;;3.72;;
35114;SDS011;21292;52.416;13.046;2024-01-15T14:05:28;7.38;;;3.50;;
35114;SDS011;21292;52.416;13.046;2024-01-15T14:07:56;8.30;;;3.50;;
35114;SDS011;21292;52.416;13.046;2024-01-15T14:10:25;6.97;;;3.50;;
35114;SDS011;21292;52.416;13.046;2024-01-15T14:12:53;9.75;;;3.60;;
35114;SDS011;21292;52.416;13.046;2024-01-15T14:15:21;9.68;;;3.40;;
35114;SDS011;21292;52.416;13.046;2024-01-15T14:17:49;9.68;;;3.42;;
35114;SDS011;21292;52.416;13.046;2024-01-15T14:20:20;8.50;;;3.53;;
35114;SDS011;21292;52.416;13.046;2024-01-15T14:22:49;9.45;;;2.97;;
35114;SDS011;21292;52.416;13.046;2024-01-15T14:25:17;7.90;;;2.88;;
35114;SDS011;21292;52.416;13.046;2024-01-15T14:27:45;10.38;;;3.10;;
35114;SDS011;21292;52.416;13.046;2024-01-15T14:30:13;10.10;;;2.97;;
35114;SDS011;21292;52.416;13.046;2024-01-15T14:32:43;7.97;;;3.05;;
35114;SDS011;21292;52.416;13.046;2024-01-15T14:35:11;8.18;;;3.25;;
35114;SDS011;21292;52.416;13.046;2024-01-15T14:37:41;7.15;;;2.63;;
35114;SDS011;21292;52.416;13.046;2024-01-15T14:40:09;4.03;;;2.50;;